KLYV

Quentin Aanenson Field Airport

Luverne, Minnesota, USA
METAR KLYV 232255Z AUTO 26007KT OVC008 M05/M07 A3015 RMK AO2 PWINO
Observed Flight Rules
Jan-23 @ 22:55 UTC (31 minutes ago)
Wind Clouds
260° at 7 knots
  • Overcast at 800' AGL
Temperatures Readings
Current -5°C / 23°F
Dewpoint -7°C / 19°F
Humidity 86%
Altimeter 30.15" Hg
Pressure 1021 hPa
Elevation 436
METAR KLYV 232255Z AUTO 26007KT OVC008 M05/M07 A3015 RMK AO2 PWINO
Observed Flight Rules
Jan-23 @ 22:55 UTC
(31 minutes ago)
Wind
260° at 7 knots
Clouds
  • Overcast at 800' AGL
Temperature Dewpoint
-5°C / 23°F -7°C / 19°F
Humidity Altimeter Pressure
86% 30.15" Hg 1021 hPa